Time;durP1;ratioP1;P1;durP2;ratioP2;P2;SDS_P1;SDS_P2;PMS_P1;PMS_P2;Temp;Humidity;BMP_temperature;BMP_pressure;BME280_temperature;BME280_humidity;BME280_pressure;Samples;Min_cycle;Max_cycle;Signal;HPM_P1;HPM_P2
2023/06/22 00:02:26;;;;;;;15.77;6.97;;;;;;;21.20;100.00;101422.97;4948673;28;20067;-70
2023/06/22 00:04:52;;;;;;;14.98;6.78;;;;;;;21.17;100.00;101413.38;4949728;28;20061;-72
2023/06/22 00:07:19;;;;;;;14.63;7.40;;;;;;;21.14;100.00;101405.88;4951276;28;20158;-70
2023/06/22 00:09:45;;;;;;;16.77;7.47;;;;;;;21.13;100.00;101406.34;4944321;28;20070;-69
2023/06/22 00:12:12;;;;;;;17.98;7.88;;;;;;;21.04;100.00;101407.13;4942725;28;20831;-67
2023/06/22 00:14:38;;;;;;;15.35;7.20;;;;;;;21.07;100.00;101416.72;4946746;28;20118;-70
2023/06/22 00:17:05;;;;;;;18.08;8.52;;;;;;;21.04;100.00;101417.66;4948348;28;20047;-70
2023/06/22 00:19:35;;;;;;;15.45;7.95;;;;;;;20.96;100.00;101413.59;4946169;28;20453;-69
2023/06/22 00:22:03;;;;;;;15.13;7.97;;;;;;;21.01;100.00;101418.59;4938199;28;20051;-70
2023/06/22 00:24:29;;;;;;;15.43;8.23;;;;;;;20.98;100.00;101417.50;4945726;29;20150;-70
2023/06/22 00:26:56;;;;;;;15.02;8.10;;;;;;;20.98;100.00;101417.50;4947988;28;20044;-70
2023/06/22 00:29:23;;;;;;;15.52;7.85;;;;;;;20.97;100.00;101412.31;4947186;28;20058;-70
2023/06/22 00:31:51;;;;;;;16.70;8.25;;;;;;;20.95;100.00;101414.81;4938241;28;20082;-72
2023/06/22 00:34:18;;;;;;;16.98;7.57;;;;;;;20.93;100.00;101417.31;4948628;28;20070;-70
2023/06/22 00:36:44;;;;;;;15.35;8.00;;;;;;;20.89;100.00;101411.81;4948283;28;20235;-70
2023/06/22 00:39:12;;;;;;;14.77;7.13;;;;;;;20.87;100.00;101417.19;4947869;28;20138;-71
2023/06/22 00:41:39;;;;;;;16.95;7.93;;;;;;;20.86;100.00;101426.91;4949389;28;20055;-71
2023/06/22 00:44:06;;;;;;;15.10;7.07;;;;;;;20.83;100.00;101416.53;4954764;28;20047;-71
2023/06/22 00:46:33;;;;;;;18.08;8.35;;;;;;;20.78;100.00;101417.16;4947474;28;20134;-69
2023/06/22 00:49:00;;;;;;;16.88;7.25;;;;;;;20.80;100.00;101430.84;4948740;28;20133;-71
2023/06/22 00:51:27;;;;;;;14.75;7.13;;;;;;;20.82;100.00;101420.63;4946774;28;20458;-71
2023/06/22 00:53:54;;;;;;;13.23;6.88;;;;;;;20.79;100.00;101413.09;4948174;28;20055;-71
2023/06/22 00:56:24;;;;;;;16.02;7.35;;;;;;;20.73;100.00;101411.38;4948267;28;20079;-70
2023/06/22 00:58:52;;;;;;;20.23;7.10;;;;;;;20.65;100.00;101410.88;4946482;28;20055;-72
2023/06/22 01:01:23;;;;;;;16.38;6.20;;;;;;;20.64;100.00;101411.34;4948795;28;20059;-73
2023/06/22 01:03:50;;;;;;;17.83;7.60;;;;;;;20.63;100.00;101407.75;4949283;28;20134;-73
2023/06/22 01:06:26;;;;;;;15.68;7.50;;;;;;;20.62;100.00;101409.00;4946400;28;20502;-70
2023/06/22 01:09:06;;;;;;;15.90;7.80;;;;;;;20.61;100.00;101401.78;4947691;28;20051;-72
2023/06/22 01:11:39;;;;;;;15.52;7.38;;;;;;;20.60;100.00;101410.72;4943651;28;20059;-72
2023/06/22 01:14:18;;;;;;;13.93;6.53;;;;;;;20.55;100.00;101403.66;4947278;29;20142;-70
2023/06/22 01:16:46;;;;;;;12.50;6.00;;;;;;;20.55;100.00;101398.00;4946600;28;20614;-72
2023/06/22 01:19:15;;;;;;;11.00;5.60;;;;;;;20.52;100.00;101404.59;4948310;28;20114;-72
2023/06/22 01:21:42;;;;;;;15.27;6.40;;;;;;;20.45;100.00;101399.25;4948093;28;20089;-68
2023/06/22 01:24:24;;;;;;;13.15;5.97;;;;;;;20.42;100.00;101399.44;4946997;28;20051;-73
2023/06/22 01:26:54;;;;;;;13.65;5.93;;;;;;;20.38;100.00;101398.81;4948059;28;20071;-72
2023/06/22 01:29:22;;;;;;;9.80;5.25;;;;;;;20.32;100.00;101390.13;4944923;29;20051;-71
2023/06/22 01:31:49;;;;;;;14.35;5.72;;;;;;;20.32;100.00;101395.03;4947949;28;20513;-72
2023/06/22 01:34:17;;;;;;;17.13;5.95;;;;;;;20.23;100.00;101389.34;4951078;28;20489;-71
2023/06/22 01:36:45;;;;;;;11.32;5.55;;;;;;;20.22;100.00;101391.38;4950643;28;20447;-70
2023/06/22 01:39:12;;;;;;;12.68;5.90;;;;;;;20.16;100.00;101396.06;4950855;28;20075;-72
2023/06/22 01:41:41;;;;;;;13.02;5.60;;;;;;;20.12;100.00;101386.97;4946735;28;20075;-70
2023/06/22 01:44:09;;;;;;;12.50;6.13;;;;;;;20.10;100.00;101392.28;4950029;28;20589;-72
2023/06/22 01:46:36;;;;;;;12.00;6.30;;;;;;;20.07;100.00;101387.56;4949807;28;20138;-71
2023/06/22 01:49:04;;;;;;;12.95;6.07;;;;;;;20.01;100.00;101389.44;4951477;28;20047;-72
2023/06/22 01:51:31;;;;;;;14.48;6.60;;;;;;;19.93;100.00;101385.34;4950836;28;20483;-70
2023/06/22 01:53:57;;;;;;;15.45;6.60;;;;;;;19.89;100.00;101379.06;4951337;28;20090;-70
2023/06/22 01:56:26;;;;;;;13.77;6.32;;;;;;;19.91;100.00;101387.06;4950938;28;20093;-70
2023/06/22 01:59:09;;;;;;;13.27;6.18;;;;;;;19.88;100.00;101393.63;4948940;28;20047;-71
2023/06/22 02:01:43;;;;;;;15.27;7.85;;;;;;;19.87;100.00;101390.03;4958820;28;20082;-69
2023/06/22 02:04:20;;;;;;;15.63;6.97;;;;;;;19.83;100.00;101380.91;4950920;28;20047;-69
2023/06/22 02:06:51;;;;;;;14.77;7.10;;;;;;;19.84;100.00;101388.13;4950292;28;20071;-66
2023/06/22 02:09:20;;;;;;;13.02;6.88;;;;;;;19.84;100.00;101395.81;4950586;28;20087;-70
2023/06/22 02:11:48;;;;;;;16.30;6.65;;;;;;;19.84;100.00;101402.25;4951104;28;20067;-68
2023/06/22 02:14:16;;;;;;;15.55;6.85;;;;;;;19.78;100.00;101404.13;4949739;28;20130;-75
2023/06/22 02:16:46;;;;;;;13.75;6.05;;;;;;;19.76;100.00;101398.13;4950806;28;20055;-68
2023/06/22 02:19:12;;;;;;;15.00;6.78;;;;;;;19.75;100.00;101405.03;4950330;28;20600;-71
2023/06/22 02:21:39;;;;;;;15.57;6.45;;;;;;;19.73;100.00;101388.56;4950260;28;20399;-70
2023/06/22 02:24:05;;;;;;;12.13;6.65;;;;;;;19.72;100.00;101394.69;4951038;28;20888;-69
2023/06/22 02:26:32;;;;;;;13.85;7.18;;;;;;;19.72;100.00;101394.69;4950184;28;20055;-68
2023/06/22 02:28:59;;;;;;;11.32;5.95;;;;;;;19.70;100.00;101397.16;4950185;28;20055;-70
2023/06/22 02:31:30;;;;;;;13.88;6.25;;;;;;;19.66;100.00;101388.88;4949557;28;20090;-70
2023/06/22 02:33:58;;;;;;;13.25;5.93;;;;;;;19.66;100.00;101388.88;4949162;28;20051;-73
2023/06/22 02:36:26;;;;;;;14.88;6.93;;;;;;;19.64;100.00;101390.56;4951069;28;20105;-70
2023/06/22 02:38:56;;;;;;;16.65;7.18;;;;;;;19.62;100.00;101393.84;4950890;28;20047;-72
2023/06/22 02:41:23;;;;;;;14.02;7.10;;;;;;;19.60;100.00;101396.34;4950361;28;20055;-71
2023/06/22 02:43:49;;;;;;;16.98;9.00;;;;;;;19.57;100.00;101391.63;4942592;28;20074;-70
2023/06/22 02:46:16;;;;;;;17.13;7.75;;;;;;;19.57;100.00;101391.63;4944863;28;20583;-73
2023/06/22 02:48:42;;;;;;;18.35;8.70;;;;;;;19.53;100.00;101387.38;4948216;28;20149;-69
2023/06/22 02:51:12;;;;;;;18.75;9.63;;;;;;;19.48;100.00;101383.13;4974178;28;20660;-71
2023/06/22 02:53:39;;;;;;;16.70;9.85;;;;;;;19.44;100.00;101378.84;4947996;28;20051;-74
2023/06/22 02:56:05;;;;;;;19.67;9.93;;;;;;;19.38;100.00;101375.06;4949036;29;20074;-72
2023/06/22 02:58:38;;;;;;;16.63;9.40;;;;;;;19.40;100.00;101389.47;4970202;28;20091;-71
2023/06/22 03:01:05;;;;;;;17.17;9.50;;;;;;;19.32;100.00;101377.72;4949862;29;20047;-71
2023/06/22 03:03:32;;;;;;;17.60;8.65;;;;;;;19.30;100.00;101374.56;4949049;28;20516;-70
2023/06/22 03:06:03;;;;;;;17.95;8.40;;;;;;;19.25;100.00;101377.19;4947786;28;20059;-73
2023/06/22 03:08:29;;;;;;;18.95;8.98;;;;;;;19.21;100.00;101376.56;4948554;28;20062;-72
2023/06/22 03:10:56;;;;;;;15.63;8.30;;;;;;;19.13;100.00;101364.75;4947485;28;20098;-70
2023/06/22 03:13:23;;;;;;;17.67;9.15;;;;;;;19.14;100.00;101362.72;4945826;28;20066;-70
2023/06/22 03:15:50;;;;;;;19.20;8.88;;;;;;;19.11;100.00;101366.47;4949700;28;20135;-70
2023/06/22 03:18:17;;;;;;;18.42;9.52;;;;;;;19.08;100.00;101367.38;4948085;28;20047;-71
2023/06/22 03:20:43;;;;;;;21.88;11.30;;;;;;;19.04;100.00;101364.69;4949474;28;20051;-70
2023/06/22 03:23:10;;;;;;;20.77;12.18;;;;;;;19.01;100.00;101359.22;4948709;28;20470;-74
2023/06/22 03:25:36;;;;;;;25.00;12.27;;;;;;;19.01;100.00;101356.38;4949298;28;20423;-68
2023/06/22 03:28:03;;;;;;;21.52;13.13;;;;;;;19.01;100.00;101359.22;4949362;28;20611;-71
2023/06/22 03:30:29;;;;;;;21.52;13.60;;;;;;;19.00;100.00;101352.00;4949823;28;20141;-69
2023/06/22 03:32:56;;;;;;;20.38;12.75;;;;;;;18.99;100.00;101358.88;4948845;28;20105;-70
2023/06/22 03:35:23;;;;;;;25.90;14.68;;;;;;;18.96;100.00;101349.31;4949401;28;20065;-70
2023/06/22 03:37:49;;;;;;;23.63;14.02;;;;;;;18.98;100.00;101360.13;4949263;28;20453;-70
2023/06/22 03:40:16;;;;;;;22.10;13.73;;;;;;;18.89;100.00;101357.22;4948047;28;20106;-71
2023/06/22 03:42:42;;;;;;;23.73;13.52;;;;;;;18.96;100.00;101354.94;4949531;28;20105;-69
2023/06/22 03:45:10;;;;;;;22.00;14.02;;;;;;;18.96;100.00;101357.75;4949332;28;20053;-70
2023/06/22 03:47:36;;;;;;;23.45;13.85;;;;;;;18.97;100.00;101361.38;4947165;28;20051;-70
2023/06/22 03:50:04;;;;;;;24.70;13.38;;;;;;;18.97;100.00;101355.75;4949788;28;20618;-71
2023/06/22 03:52:30;;;;;;;26.85;15.02;;;;;;;18.97;100.00;101355.75;4947024;28;20138;-71
2023/06/22 03:54:57;;;;;;;24.17;12.10;;;;;;;18.96;100.00;101352.13;4947351;28;21028;-69
2023/06/22 03:57:24;;;;;;;22.30;12.52;;;;;;;18.95;100.00;101346.94;4948329;28;20047;-73
2023/06/22 03:59:50;;;;;;;26.45;15.40;;;;;;;18.96;100.00;101345.69;4949136;28;20098;-70
2023/06/22 04:02:17;;;;;;;24.40;14.48;;;;;;;18.97;100.00;101339.59;4947751;28;20150;-73
2023/06/22 04:04:43;;;;;;;24.88;14.88;;;;;;;18.97;100.00;101338.84;4978786;28;20074;-72
2023/06/22 04:07:10;;;;;;;22.60;13.88;;;;;;;18.98;100.00;101337.59;4948797;28;20051;-72
2023/06/22 04:09:36;;;;;;;23.75;15.27;;;;;;;18.99;100.00;101334.31;4949685;28;20047;-71
2023/06/22 04:12:03;;;;;;;24.50;15.18;;;;;;;19.00;100.00;101330.22;4949112;28;20051;-72
2023/06/22 04:14:30;;;;;;;21.48;14.20;;;;;;;19.01;100.00;101328.22;4948441;28;20102;-71
2023/06/22 04:16:57;;;;;;;25.88;16.75;;;;;;;19.03;100.00;101336.97;4948186;29;20126;-71
2023/06/22 04:19:24;;;;;;;27.33;16.60;;;;;;;19.00;100.00;101338.69;4949359;28;20462;-72
2023/06/22 04:21:50;;;;;;;28.08;16.83;;;;;;;19.00;100.00;101335.88;4948563;28;20089;-70
2023/06/22 04:24:17;;;;;;;29.25;17.90;;;;;;;19.04;100.00;101330.09;4945497;28;20095;-70
2023/06/22 04:26:45;;;;;;;24.63;16.98;;;;;;;19.09;100.00;101335.13;4947261;29;20177;-70
2023/06/22 04:29:12;;;;;;;27.65;16.90;;;;;;;19.09;100.00;101332.31;4949051;28;20070;-70
2023/06/22 04:31:39;;;;;;;27.55;17.85;;;;;;;19.10;100.00;101339.50;4949202;28;20051;-71
2023/06/22 04:34:07;;;;;;;26.90;16.73;;;;;;;19.12;100.00;101343.47;4947991;28;20047;-72
2023/06/22 04:36:37;;;;;;;30.08;17.17;;;;;;;19.13;100.00;101336.56;4979263;28;20055;-72
2023/06/22 04:39:09;;;;;;;24.25;16.50;;;;;;;19.19;100.00;101336.75;4946971;28;20051;-72
2023/06/22 04:41:42;;;;;;;28.13;17.15;;;;;;;19.24;100.00;101330.53;4949940;28;20094;-72
2023/06/22 04:44:09;;;;;;;24.70;16.50;;;;;;;19.30;100.00;101335.09;4946980;28;20051;-71
2023/06/22 04:46:38;;;;;;;27.13;17.25;;;;;;;19.33;100.00;101341.81;4948255;28;20059;-71
2023/06/22 04:49:12;;;;;;;24.17;16.77;;;;;;;19.38;100.00;101344.81;4948757;28;20043;-72
2023/06/22 04:51:42;;;;;;;26.70;16.33;;;;;;;19.44;100.00;101336.53;4948229;28;20094;-72
2023/06/22 04:54:09;;;;;;;25.10;17.42;;;;;;;19.49;100.00;101338.81;4948675;28;20698;-71
2023/06/22 04:56:36;;;;;;;27.27;17.10;;;;;;;19.52;100.00;101330.19;4956500;28;20051;-70
2023/06/22 04:59:03;;;;;;;28.77;18.08;;;;;;;19.57;100.00;101338.06;4946477;28;20458;-73
2023/06/22 05:01:32;;;;;;;26.08;16.80;;;;;;;19.62;100.00;101325.38;4948243;28;20062;-71
2023/06/22 05:04:02;;;;;;;26.92;17.30;;;;;;;19.62;100.00;101317.69;4946253;28;20126;-72
2023/06/22 05:06:30;;;;;;;26.98;17.20;;;;;;;19.65;100.00;101318.81;4948260;28;20529;-72
2023/06/22 05:08:57;;;;;;;31.50;19.80;;;;;;;19.69;100.00;101325.09;4951415;28;20050;-72
2023/06/22 05:11:27;;;;;;;28.55;17.10;;;;;;;19.72;100.00;101329.81;4950799;29;20051;-71
2023/06/22 05:13:55;;;;;;;29.95;18.23;;;;;;;19.73;100.00;101326.50;4951234;28;20102;-68
2023/06/22 05:16:23;;;;;;;26.92;18.35;;;;;;;19.74;100.00;101332.91;4951686;28;20079;-72
2023/06/22 05:18:53;;;;;;;26.45;18.33;;;;;;;19.77;100.00;101334.81;4947949;28;20082;-71
2023/06/22 05:21:24;;;;;;;26.73;17.52;;;;;;;19.78;100.00;101339.22;4948620;29;20449;-75
2023/06/22 05:23:54;;;;;;;27.15;17.98;;;;;;;19.82;100.00;101337.03;4950295;28;20569;-71
2023/06/22 05:26:21;;;;;;;28.73;18.33;;;;;;;19.86;100.00;101337.66;4951937;28;20134;-71
2023/06/22 05:28:48;;;;;;;27.52;18.75;;;;;;;19.86;100.00;101340.50;4951255;28;20070;-71
2023/06/22 05:31:16;;;;;;;30.15;19.08;;;;;;;19.84;100.00;101342.97;4949027;28;20078;-70
2023/06/22 05:33:44;;;;;;;28.63;19.05;;;;;;;19.81;100.00;101340.31;4951942;28;20070;-72
2023/06/22 05:36:10;;;;;;;29.50;19.00;;;;;;;19.80;100.00;101345.16;4942504;28;20110;-68
2023/06/22 05:38:37;;;;;;;29.08;18.90;;;;;;;19.76;100.00;101347.34;4951348;28;20047;-70
2023/06/22 05:41:04;;;;;;;28.00;19.27;;;;;;;19.78;100.00;101353.34;4951014;28;20137;-70
2023/06/22 05:43:31;;;;;;;29.27;19.42;;;;;;;19.74;100.00;101355.50;4951601;28;20054;-70
2023/06/22 05:45:58;;;;;;;28.58;19.80;;;;;;;19.72;100.00;101358.00;4951712;28;20059;-71
2023/06/22 05:48:24;;;;;;;27.58;19.55;;;;;;;19.67;100.00;101355.78;4947280;28;20047;-72
2023/06/22 05:50:51;;;;;;;28.40;19.40;;;;;;;19.67;100.00;101355.78;4951530;28;20150;-71
2023/06/22 05:53:17;;;;;;;29.45;19.05;;;;;;;19.68;100.00;101357.38;4951401;28;20089;-71
2023/06/22 05:55:47;;;;;;;27.88;19.55;;;;;;;19.66;100.00;101365.50;4948385;28;20605;-70
2023/06/22 05:58:14;;;;;;;29.02;18.58;;;;;;;19.65;100.00;101378.81;4943756;28;20048;-70
2023/06/22 06:00:42;;;;;;;27.27;19.90;;;;;;;19.65;100.00;101378.81;4951028;28;20047;-71
2023/06/22 06:03:10;;;;;;;28.55;18.92;;;;;;;19.63;100.00;101383.34;4951296;28;20090;-70
2023/06/22 06:05:38;;;;;;;26.30;19.30;;;;;;;19.63;100.00;101377.72;4951055;28;20051;-69
2023/06/22 06:08:06;;;;;;;28.40;19.35;;;;;;;19.64;100.00;101376.47;4949394;29;20035;-70
2023/06/22 06:10:33;;;;;;;29.98;19.92;;;;;;;19.70;100.00;101383.06;4949133;28;20062;-71
2023/06/22 06:13:02;;;;;;;26.98;19.63;;;;;;;19.70;100.00;101374.59;4959638;28;20072;-71
2023/06/22 06:15:30;;;;;;;32.00;19.77;;;;;;;19.69;100.00;101376.63;4950163;28;20106;-71
2023/06/22 06:17:56;;;;;;;27.98;19.27;;;;;;;19.73;100.00;101379.31;4950645;28;20043;-72
2023/06/22 06:20:27;;;;;;;28.58;19.77;;;;;;;19.74;100.00;101369.59;4946885;28;20067;-74
2023/06/22 06:22:55;;;;;;;36.58;21.50;;;;;;;19.74;100.00;101369.59;4951084;28;20051;-77
2023/06/22 06:25:23;;;;;;;31.02;19.88;;;;;;;19.77;100.00;101358.19;4951346;28;20062;-71
2023/06/22 06:27:51;;;;;;;27.73;18.90;;;;;;;19.76;100.00;101355.81;4950304;28;20469;-73
2023/06/22 06:30:19;;;;;;;30.00;19.90;;;;;;;19.82;100.00;101367.28;4943655;28;20130;-71
2023/06/22 06:32:46;;;;;;;29.75;19.88;;;;;;;19.80;100.00;101362.09;4947993;28;20130;-71
2023/06/22 06:35:15;;;;;;;29.92;21.00;;;;;;;19.79;100.00;101355.66;4941599;29;20110;-74
2023/06/22 06:37:48;;;;;;;31.58;19.95;;;;;;;19.82;100.00;101362.44;4949111;28;20054;-72
2023/06/22 06:40:16;;;;;;;28.33;19.80;;;;;;;19.82;100.00;101356.78;4947808;28;20067;-71
2023/06/22 06:42:45;;;;;;;30.65;20.17;;;;;;;19.86;100.00;101357.41;4949531;28;20059;-73
2023/06/22 06:45:13;;;;;;;30.40;21.30;;;;;;;19.87;100.00;101367.44;4949986;28;20081;-70
2023/06/22 06:47:39;;;;;;;30.95;19.75;;;;;;;19.86;100.00;101363.06;4949357;28;20153;-69
2023/06/22 06:50:07;;;;;;;29.67;20.50;;;;;;;19.89;100.00;101367.78;4945478;28;20047;-71
2023/06/22 06:52:34;;;;;;;29.83;19.92;;;;;;;19.90;100.00;101362.91;4947399;29;20059;-70
2023/06/22 06:55:06;;;;;;;28.45;21.08;;;;;;;19.94;100.00;101364.31;4942865;28;20059;-67
2023/06/22 06:57:33;;;;;;;26.83;19.02;;;;;;;20.02;100.00;101350.72;4950488;28;20486;-71
2023/06/22 07:00:00;;;;;;;30.88;19.98;;;;;;;20.06;100.00;101359.81;4953261;28;20051;-67
2023/06/22 07:02:29;;;;;;;28.35;19.70;;;;;;;20.10;100.00;101349.94;4946742;28;20055;-68
2023/06/22 07:04:56;;;;;;;27.70;19.05;;;;;;;20.11;100.00;101357.16;4949412;28;20048;-68
2023/06/22 07:07:22;;;;;;;31.63;19.85;;;;;;;20.14;100.00;101355.41;4949216;28;20660;-71
2023/06/22 07:09:49;;;;;;;28.23;20.08;;;;;;;20.18;100.00;101354.03;4941601;28;20059;-70
2023/06/22 07:12:16;;;;;;;30.95;19.25;;;;;;;20.20;100.00;101353.56;4945312;28;20111;-67
2023/06/22 07:14:42;;;;;;;31.27;19.70;;;;;;;20.21;100.00;101349.50;4945857;29;20058;-71
2023/06/22 07:17:09;;;;;;;29.13;19.95;;;;;;;20.24;100.00;101343.72;4950183;28;20556;-72
2023/06/22 07:19:35;;;;;;;29.55;19.33;;;;;;;20.30;100.00;101349.53;4945909;28;20055;-68
2023/06/22 07:22:02;;;;;;;28.88;19.38;;;;;;;20.32;100.00;101338.53;4948923;28;20148;-73
2023/06/22 07:24:28;;;;;;;29.50;19.20;;;;;;;20.32;100.00;101328.03;4947614;28;20858;-72
2023/06/22 07:26:58;;;;;;;29.27;19.40;;;;;;;20.31;100.00;101331.31;4943779;28;20094;-72
2023/06/22 07:29:26;;;;;;;30.27;19.67;;;;;;;20.37;100.00;101321.75;4950236;28;20048;-69
2023/06/22 07:31:56;;;;;;;27.75;19.02;;;;;;;20.43;100.00;101321.91;4947601;28;20105;-72
2023/06/22 07:34:22;;;;;;;33.20;19.75;;;;;;;20.49;100.00;101320.81;4944750;28;20055;-70
2023/06/22 07:36:49;;;;;;;33.40;20.08;;;;;;;20.55;100.00;101324.56;4939179;29;20077;-71
2023/06/22 07:39:15;;;;;;;31.73;20.35;;;;;;;20.58;100.00;101328.47;4946490;29;20581;-70
2023/06/22 07:41:42;;;;;;;29.80;19.67;;;;;;;20.63;100.00;101319.38;4948207;28;20098;-70
2023/06/22 07:44:09;;;;;;;28.00;19.90;;;;;;;20.70;100.00;101321.91;4949314;28;20573;-72
2023/06/22 07:46:35;;;;;;;29.77;19.02;;;;;;;20.78;100.00;101326.75;4947835;28;20826;-72
2023/06/22 07:49:02;;;;;;;30.63;20.50;;;;;;;20.82;100.00;101318.88;4948007;28;20074;-69
2023/06/22 07:51:29;;;;;;;32.53;20.83;;;;;;;20.86;100.00;101319.50;4948568;28;20469;-72
2023/06/22 07:53:55;;;;;;;29.33;22.23;;;;;;;20.93;100.00;101302.25;4945668;28;20177;-70
2023/06/22 07:56:22;;;;;;;31.73;20.60;;;;;;;21.04;100.00;101313.84;4943154;28;20058;-73
2023/06/22 07:58:48;;;;;;;30.27;20.60;;;;;;;21.15;100.00;101313.31;4946145;29;20102;-69
2023/06/22 08:01:15;;;;;;;28.38;19.55;;;;;;;21.26;100.00;101305.91;4949623;28;20145;-70
2023/06/22 08:03:42;;;;;;;34.65;20.77;;;;;;;21.36;100.00;101304.59;4949603;28;20079;-69
2023/06/22 08:06:09;;;;;;;27.60;18.70;;;;;;;21.42;100.00;101308.34;4979464;28;20494;-70
2023/06/22 08:08:36;;;;;;;30.40;20.25;;;;;;;21.48;100.00;101300.78;4948621;28;20083;-69
2023/06/22 08:11:03;;;;;;;29.27;19.63;;;;;;;21.52;100.00;101306.25;4948837;28;20582;-70
2023/06/22 08:13:30;;;;;;;32.38;19.73;;;;;;;21.60;100.00;101305.44;4948979;28;20162;-69
2023/06/22 08:15:56;;;;;;;31.15;20.25;;;;;;;21.68;100.00;101306.69;4948885;28;20062;-69
2023/06/22 08:18:23;;;;;;;32.67;21.02;;;;;;;21.72;100.00;101284.66;4941178;28;20076;-71
2023/06/22 08:20:49;;;;;;;30.65;20.38;;;;;;;21.77;100.00;101275.47;4942782;28;20138;-70
2023/06/22 08:23:17;;;;;;;30.40;20.83;;;;;;;21.82;100.00;101277.66;4947750;28;20047;-69
2023/06/22 08:25:43;;;;;;;30.70;20.83;;;;;;;21.86;100.00;101269.78;4947400;29;20165;-69
2023/06/22 08:28:10;;;;;;;33.65;21.30;;;;;;;21.87;100.00;101265.66;4948616;28;20051;-70
2023/06/22 08:30:36;;;;;;;29.52;20.38;;;;;;;21.94;100.00;101270.97;4948033;28;20071;-69
2023/06/22 08:33:03;;;;;;;32.83;21.15;;;;;;;21.96;100.00;101264.81;4948281;28;20114;-69
2023/06/22 08:35:30;;;;;;;32.75;21.45;;;;;;;22.04;100.00;101255.47;4946975;28;20506;-71
2023/06/22 08:37:57;;;;;;;28.63;20.98;;;;;;;22.13;100.00;101257.44;4963190;28;20150;-66
2023/06/22 08:40:24;;;;;;;28.42;20.85;;;;;;;22.15;100.00;101235.88;4944012;28;20080;-70
2023/06/22 08:42:51;;;;;;;31.45;21.55;;;;;;;22.19;100.00;101218.69;4945980;28;20075;-72
2023/06/22 08:45:17;;;;;;;31.63;21.42;;;;;;;22.30;100.00;101224.59;4950303;28;20059;-68
2023/06/22 08:47:44;;;;;;;30.63;21.40;;;;;;;22.44;100.00;101215.31;4955804;28;20155;-69
2023/06/22 08:50:12;;;;;;;31.08;21.77;;;;;;;22.55;100.00;101220.41;4950107;28;20047;-70
2023/06/22 08:52:43;;;;;;;31.40;20.67;;;;;;;22.69;100.00;101222.47;4948718;28;20086;-70
2023/06/22 08:55:10;;;;;;;31.00;21.27;;;;;;;22.83;100.00;101221.66;4946594;28;20522;-70
2023/06/22 08:57:38;;;;;;;27.83;20.05;;;;;;;22.98;100.00;101228.91;4946854;28;20054;-72
2023/06/22 09:00:17;;;;;;;30.90;20.40;;;;;;;23.11;100.00;101220.88;4947016;28;20459;-72
2023/06/22 09:02:45;;;;;;;26.80;19.48;;;;;;;23.19;100.00;101224.09;4944507;28;20054;-70
2023/06/22 09:05:12;;;;;;;26.38;19.60;;;;;;;23.22;100.00;101215.34;4939394;28;20186;-72
2023/06/22 09:07:38;;;;;;;25.85;18.77;;;;;;;23.22;100.00;101217.44;4934948;28;20073;-71
2023/06/22 09:10:06;;;;;;;29.85;21.08;;;;;;;23.24;100.00;101223.38;4950530;28;20078;-71
2023/06/22 09:12:33;;;;;;;30.15;21.20;;;;;;;23.18;100.00;101219.69;4949683;28;20051;-72
2023/06/22 09:15:00;;;;;;;27.58;20.73;;;;;;;23.20;100.00;101212.25;4946104;29;20067;-71
2023/06/22 09:17:27;;;;;;;29.42;20.85;;;;;;;23.23;100.00;101207.66;4944985;28;20051;-70
2023/06/22 09:19:54;;;;;;;30.02;20.15;;;;;;;23.18;100.00;101209.13;4946811;28;20051;-69
2023/06/22 09:22:20;;;;;;;32.10;22.60;;;;;;;23.22;100.00;101206.09;4949632;28;20070;-70
2023/06/22 09:24:47;;;;;;;29.13;21.40;;;;;;;23.25;100.00;101205.88;4948533;29;20047;-67
2023/06/22 09:27:14;;;;;;;28.23;20.40;;;;;;;23.30;100.00;101212.91;4945692;28;20576;-70
2023/06/22 09:29:40;;;;;;;30.13;21.40;;;;;;;23.35;100.00;101200.84;4951109;28;20506;-69
2023/06/22 09:32:07;;;;;;;28.40;20.42;;;;;;;23.43;100.00;101204.84;4946511;28;20108;-70
2023/06/22 09:34:34;;;;;;;31.02;20.63;;;;;;;23.53;100.00;101200.59;4950050;29;20106;-70
2023/06/22 09:37:00;;;;;;;27.42;19.83;;;;;;;23.61;100.00;101213.91;4949949;28;20138;-68
2023/06/22 09:39:27;;;;;;;27.10;20.00;;;;;;;23.67;100.00;101216.81;4945754;28;20055;-70
2023/06/22 09:42:00;;;;;;;30.10;19.92;;;;;;;23.69;100.00;101214.25;4942565;29;20122;-71
2023/06/22 09:44:28;;;;;;;29.08;20.02;;;;;;;23.69;100.00;101208.59;4950578;28;20067;-70
2023/06/22 09:46:54;;;;;;;25.42;17.85;;;;;;;23.69;100.00;101205.75;4948077;28;20055;-71
2023/06/22 09:49:21;;;;;;;28.40;19.25;;;;;;;23.70;100.00;101193.09;4950300;28;20054;-71
2023/06/22 09:52:07;;;;;;;26.50;17.83;;;;;;;23.72;100.00;101190.53;4948072;29;20425;-71
2023/06/22 09:54:34;;;;;;;26.73;16.67;;;;;;;23.69;100.00;101186.63;4946565;28;20066;-71
2023/06/22 09:57:01;;;;;;;25.60;18.00;;;;;;;23.69;100.00;101189.47;4950948;28;20158;-69
2023/06/22 09:59:27;;;;;;;24.20;16.75;;;;;;;23.68;100.00;101199.28;4951021;28;20098;-72
2023/06/22 10:01:54;;;;;;;27.48;18.38;;;;;;;23.67;100.00;101189.22;4947037;28;20067;-71
2023/06/22 10:04:20;;;;;;;25.10;17.00;;;;;;;23.71;100.00;101186.13;4951043;28;20343;-72
2023/06/22 10:06:47;;;;;;;25.35;17.42;;;;;;;23.76;100.00;101186.22;4949521;29;20051;-73
2023/06/22 10:09:14;;;;;;;24.42;16.15;;;;;;;23.84;100.00;101180.88;4950027;28;20110;-71
2023/06/22 10:11:40;;;;;;;22.58;15.90;;;;;;;23.92;100.00;101182.78;4957981;28;20147;-70
2023/06/22 10:14:07;;;;;;;24.63;16.48;;;;;;;24.05;100.00;101180.34;4948566;28;20082;-71
2023/06/22 10:16:35;;;;;;;26.25;15.65;;;;;;;24.21;100.00;101174.06;4949686;28;20078;-70
2023/06/22 10:19:02;;;;;;;24.42;14.93;;;;;;;24.29;100.00;101172.38;4948479;28;20047;-70
2023/06/22 10:21:29;;;;;;;21.77;14.55;;;;;;;24.39;100.00;101159.56;4941386;28;20059;-69
2023/06/22 10:23:55;;;;;;;21.67;14.77;;;;;;;24.48;100.00;101164.28;4945040;28;20098;-72
2023/06/22 10:26:22;;;;;;;22.52;14.82;;;;;;;24.57;100.00;101157.63;4943627;29;20056;-72
2023/06/22 10:28:49;;;;;;;24.75;13.60;;;;;;;24.67;100.00;101153.31;4947957;28;20054;-70
2023/06/22 10:31:33;;;;;;;25.20;14.57;;;;;;;24.77;100.00;101146.94;4945747;28;20052;-72
2023/06/22 10:33:59;;;;;;;23.02;13.98;;;;;;;24.95;100.00;101148.63;4943894;28;20055;-70
2023/06/22 10:36:26;;;;;;;24.25;15.38;;;;;;;25.07;100.00;101144.59;4942658;28;20043;-71
2023/06/22 10:38:53;;;;;;;24.10;15.38;;;;;;;25.25;100.00;101142.13;4949265;28;20097;-72
2023/06/22 10:41:19;;;;;;;21.92;15.32;;;;;;;25.38;100.00;101139.56;4951109;28;20051;-72
2023/06/22 10:43:46;;;;;;;22.38;14.93;;;;;;;25.57;100.00;101135.03;4952247;28;20047;-71
2023/06/22 10:46:13;;;;;;;24.17;14.82;;;;;;;25.67;100.00;101136.38;4947913;28;20075;-73
2023/06/22 10:48:39;;;;;;;21.42;13.95;;;;;;;25.77;100.00;101134.06;4944353;28;20143;-72
2023/06/22 10:51:06;;;;;;;21.98;13.95;;;;;;;25.88;100.00;101129.16;4944800;28;20110;-71
2023/06/22 10:53:32;;;;;;;24.02;15.75;;;;;;;25.87;100.00;101129.69;4943257;28;20056;-71
2023/06/22 10:55:59;;;;;;;24.60;16.73;;;;;;;25.77;100.00;101136.91;4942376;28;20050;-74
2023/06/22 10:58:26;;;;;;;22.58;14.75;;;;;;;25.74;100.00;101137.94;4942526;29;20142;-74
2023/06/22 11:00:53;;;;;;;23.92;15.18;;;;;;;25.74;100.00;101130.16;4948073;28;20043;-73
2023/06/22 11:03:19;;;;;;;24.42;16.05;;;;;;;25.73;100.00;101127.84;4949602;28;20051;-72
2023/06/22 11:05:47;;;;;;;25.23;15.80;;;;;;;25.71;100.00;101127.56;4948203;28;20047;-72
2023/06/22 11:08:14;;;;;;;25.70;16.45;;;;;;;25.64;100.00;101140.22;4947121;28;20395;-72